sensor_id;sensor_type;location;lat;lon;timestamp;temperature;humidity
1778;DHT22;886;50.082;8.222;2022-09-09T00:02:08;17.50;99.90
1778;DHT22;886;50.082;8.222;2022-09-09T00:04:40;17.50;99.90
1778;DHT22;886;50.082;8.222;2022-09-09T00:07:15;17.50;99.90
1778;DHT22;886;50.082;8.222;2022-09-09T00:09:53;17.50;99.90
1778;DHT22;886;50.082;8.222;2022-09-09T00:12:32;17.50;99.90
1778;DHT22;886;50.082;8.222;2022-09-09T00:15:05;17.50;99.90
1778;DHT22;886;50.082;8.222;2022-09-09T00:17:44;17.40;99.90
1778;DHT22;886;50.082;8.222;2022-09-09T00:20:19;17.30;99.90
1778;DHT22;886;50.082;8.222;2022-09-09T00:22:52;17.30;99.90
1778;DHT22;886;50.082;8.222;2022-09-09T00:25:26;17.40;99.90
1778;DHT22;886;50.082;8.222;2022-09-09T00:27:56;17.40;99.90
1778;DHT22;886;50.082;8.222;2022-09-09T00:30:24;17.20;99.90
1778;DHT22;886;50.082;8.222;2022-09-09T00:32:55;17.20;99.90
1778;DHT22;886;50.082;8.222;2022-09-09T00:35:29;17.20;99.90
1778;DHT22;886;50.082;8.222;2022-09-09T00:38:01;17.10;99.90
1778;DHT22;886;50.082;8.222;2022-09-09T00:40:33;17.10;99.90
1778;DHT22;886;50.082;8.222;2022-09-09T00:43:15;17.10;99.90
1778;DHT22;886;50.082;8.222;2022-09-09T00:46:14;17.00;99.90
1778;DHT22;886;50.082;8.222;2022-09-09T00:48:58;17.10;99.90
1778;DHT22;886;50.082;8.222;2022-09-09T00:51:35;16.90;99.90
1778;DHT22;886;50.082;8.222;2022-09-09T00:54:28;17.00;99.90
1778;DHT22;886;50.082;8.222;2022-09-09T00:57:12;16.90;99.90
1778;DHT22;886;50.082;8.222;2022-09-09T00:59:47;16.80;99.90
1778;DHT22;886;50.082;8.222;2022-09-09T01:02:25;16.90;99.90
1778;DHT22;886;50.082;8.222;2022-09-09T01:04:59;16.90;99.90
1778;DHT22;886;50.082;8.222;2022-09-09T01:07:31;16.90;99.90
1778;DHT22;886;50.082;8.222;2022-09-09T01:10:00;16.90;99.90
1778;DHT22;886;50.082;8.222;2022-09-09T01:12:34;16.90;99.90
1778;DHT22;886;50.082;8.222;2022-09-09T01:15:12;16.90;99.90
1778;DHT22;886;50.082;8.222;2022-09-09T01:17:50;16.90;99.90
1778;DHT22;886;50.082;8.222;2022-09-09T01:20:24;16.90;99.90
1778;DHT22;886;50.082;8.222;2022-09-09T01:23:04;16.70;99.90
1778;DHT22;886;50.082;8.222;2022-09-09T01:26:07;16.70;99.90
1778;DHT22;886;50.082;8.222;2022-09-09T01:28:40;16.80;99.90
1778;DHT22;886;50.082;8.222;2022-09-09T01:31:13;16.80;99.90
1778;DHT22;886;50.082;8.222;2022-09-09T01:33:42;16.80;99.90
1778;DHT22;886;50.082;8.222;2022-09-09T01:36:12;16.70;99.90
1778;DHT22;886;50.082;8.222;2022-09-09T01:38:41;16.70;99.90
1778;DHT22;886;50.082;8.222;2022-09-09T01:41:09;16.70;99.90
1778;DHT22;886;50.082;8.222;2022-09-09T01:43:37;16.70;99.90
1778;DHT22;886;50.082;8.222;2022-09-09T01:46:04;16.70;99.90
1778;DHT22;886;50.082;8.222;2022-09-09T01:48:33;16.70;99.90
1778;DHT22;886;50.082;8.222;2022-09-09T01:51:00;16.60;99.90
1778;DHT22;886;50.082;8.222;2022-09-09T01:53:27;16.60;99.90
1778;DHT22;886;50.082;8.222;2022-09-09T01:56:05;16.60;99.90
1778;DHT22;886;50.082;8.222;2022-09-09T01:58:49;16.60;99.90
1778;DHT22;886;50.082;8.222;2022-09-09T02:01:30;16.50;99.90
1778;DHT22;886;50.082;8.222;2022-09-09T02:04:10;16.30;99.90
1778;DHT22;886;50.082;8.222;2022-09-09T02:06:46;16.30;99.90
1778;DHT22;886;50.082;8.222;2022-09-09T02:09:18;16.50;99.90
1778;DHT22;886;50.082;8.222;2022-09-09T02:11:55;16.50;99.90
1778;DHT22;886;50.082;8.222;2022-09-09T02:14:27;16.50;99.90
1778;DHT22;886;50.082;8.222;2022-09-09T02:17:00;16.50;99.90
1778;DHT22;886;50.082;8.222;2022-09-09T02:19:32;16.40;99.90
1778;DHT22;886;50.082;8.222;2022-09-09T02:22:03;16.40;99.90
1778;DHT22;886;50.082;8.222;2022-09-09T02:24:34;16.40;99.90
1778;DHT22;886;50.082;8.222;2022-09-09T02:27:05;16.40;99.90
1778;DHT22;886;50.082;8.222;2022-09-09T02:29:37;16.40;99.90
1778;DHT22;886;50.082;8.222;2022-09-09T02:32:11;16.40;99.90
1778;DHT22;886;50.082;8.222;2022-09-09T02:34:42;16.50;99.90
1778;DHT22;886;50.082;8.222;2022-09-09T02:37:11;16.50;99.90
1778;DHT22;886;50.082;8.222;2022-09-09T02:39:38;16.60;99.90
1778;DHT22;886;50.082;8.222;2022-09-09T02:42:07;16.50;99.90
1778;DHT22;886;50.082;8.222;2022-09-09T02:44:35;16.50;99.90
1778;DHT22;886;50.082;8.222;2022-09-09T02:47:24;16.50;99.90
1778;DHT22;886;50.082;8.222;2022-09-09T02:50:07;16.60;99.90
1778;DHT22;886;50.082;8.222;2022-09-09T02:52:45;16.60;99.90
1778;DHT22;886;50.082;8.222;2022-09-09T02:55:20;16.60;99.90
1778;DHT22;886;50.082;8.222;2022-09-09T02:57:52;16.50;99.90
1778;DHT22;886;50.082;8.222;2022-09-09T03:00:23;16.60;99.90
1778;DHT22;886;50.082;8.222;2022-09-09T03:02:51;16.60;99.90
1778;DHT22;886;50.082;8.222;2022-09-09T03:05:21;16.40;99.90
1778;DHT22;886;50.082;8.222;2022-09-09T03:07:48;16.50;99.90
1778;DHT22;886;50.082;8.222;2022-09-09T03:10:17;16.50;99.90
1778;DHT22;886;50.082;8.222;2022-09-09T03:12:44;16.50;99.90
1778;DHT22;886;50.082;8.222;2022-09-09T03:15:12;16.60;99.90
1778;DHT22;886;50.082;8.222;2022-09-09T03:17:43;16.60;99.90
1778;DHT22;886;50.082;8.222;2022-09-09T03:20:10;16.70;99.90
1778;DHT22;886;50.082;8.222;2022-09-09T03:22:38;16.70;99.90
1778;DHT22;886;50.082;8.222;2022-09-09T03:25:05;16.70;99.90
1778;DHT22;886;50.082;8.222;2022-09-09T03:27:33;16.60;99.90
1778;DHT22;886;50.082;8.222;2022-09-09T03:30:03;16.60;99.90
1778;DHT22;886;50.082;8.222;2022-09-09T03:32:32;16.60;99.90
1778;DHT22;886;50.082;8.222;2022-09-09T03:35:00;16.60;99.90
1778;DHT22;886;50.082;8.222;2022-09-09T03:37:27;16.60;99.90
1778;DHT22;886;50.082;8.222;2022-09-09T03:40:00;16.60;99.90
1778;DHT22;886;50.082;8.222;2022-09-09T03:42:27;16.60;99.90
1778;DHT22;886;50.082;8.222;2022-09-09T03:44:54;16.60;99.90
1778;DHT22;886;50.082;8.222;2022-09-09T03:47:21;16.70;99.90
1778;DHT22;886;50.082;8.222;2022-09-09T03:49:50;16.70;99.90
1778;DHT22;886;50.082;8.222;2022-09-09T03:52:17;16.70;99.90
1778;DHT22;886;50.082;8.222;2022-09-09T03:54:49;16.70;99.90
1778;DHT22;886;50.082;8.222;2022-09-09T03:57:16;16.70;99.90
1778;DHT22;886;50.082;8.222;2022-09-09T03:59:43;16.70;99.90
1778;DHT22;886;50.082;8.222;2022-09-09T04:02:10;16.60;99.90
1778;DHT22;886;50.082;8.222;2022-09-09T04:04:37;16.60;99.90
1778;DHT22;886;50.082;8.222;2022-09-09T04:07:06;16.70;99.90
1778;DHT22;886;50.082;8.222;2022-09-09T04:09:33;16.70;99.90
1778;DHT22;886;50.082;8.222;2022-09-09T04:12:04;16.70;99.90
1778;DHT22;886;50.082;8.222;2022-09-09T04:14:33;16.60;99.90
1778;DHT22;886;50.082;8.222;2022-09-09T04:16:59;16.70;99.90
1778;DHT22;886;50.082;8.222;2022-09-09T04:19:33;16.70;99.90
1778;DHT22;886;50.082;8.222;2022-09-09T04:22:00;16.70;99.90
1778;DHT22;886;50.082;8.222;2022-09-09T04:24:28;16.70;99.90
1778;DHT22;886;50.082;8.222;2022-09-09T04:26:55;16.70;99.90
1778;DHT22;886;50.082;8.222;2022-09-09T04:29:22;16.60;99.90
1778;DHT22;886;50.082;8.222;2022-09-09T04:31:56;16.50;99.90
1778;DHT22;886;50.082;8.222;2022-09-09T04:34:24;16.60;99.90
1778;DHT22;886;50.082;8.222;2022-09-09T04:36:51;16.50;99.90
1778;DHT22;886;50.082;8.222;2022-09-09T04:39:18;16.60;99.90
1778;DHT22;886;50.082;8.222;2022-09-09T04:41:47;16.70;99.90
1778;DHT22;886;50.082;8.222;2022-09-09T04:44:15;16.60;99.90
1778;DHT22;886;50.082;8.222;2022-09-09T04:46:42;16.70;99.90
1778;DHT22;886;50.082;8.222;2022-09-09T04:49:12;16.60;99.90
1778;DHT22;886;50.082;8.222;2022-09-09T04:51:40;16.70;99.90
1778;DHT22;886;50.082;8.222;2022-09-09T04:54:08;16.70;99.90
1778;DHT22;886;50.082;8.222;2022-09-09T04:56:35;16.80;99.90
1778;DHT22;886;50.082;8.222;2022-09-09T04:59:04;16.70;99.90
1778;DHT22;886;50.082;8.222;2022-09-09T05:01:32;16.70;99.90
1778;DHT22;886;50.082;8.222;2022-09-09T05:03:59;16.70;99.90
1778;DHT22;886;50.082;8.222;2022-09-09T05:06:26;16.60;99.90
1778;DHT22;886;50.082;8.222;2022-09-09T05:08:53;16.70;99.90
1778;DHT22;886;50.082;8.222;2022-09-09T05:11:22;16.60;99.90
1778;DHT22;886;50.082;8.222;2022-09-09T05:13:51;16.50;99.90
1778;DHT22;886;50.082;8.222;2022-09-09T05:16:21;16.50;99.90
1778;DHT22;886;50.082;8.222;2022-09-09T05:18:50;16.50;99.90
1778;DHT22;886;50.082;8.222;2022-09-09T05:21:19;16.50;99.90
1778;DHT22;886;50.082;8.222;2022-09-09T05:23:47;16.60;99.90
1778;DHT22;886;50.082;8.222;2022-09-09T05:26:19;16.60;99.90
1778;DHT22;886;50.082;8.222;2022-09-09T05:28:48;16.60;99.90
1778;DHT22;886;50.082;8.222;2022-09-09T05:31:17;16.60;99.90
1778;DHT22;886;50.082;8.222;2022-09-09T05:33:48;16.60;99.90
1778;DHT22;886;50.082;8.222;2022-09-09T05:36:17;16.60;99.90
1778;DHT22;886;50.082;8.222;2022-09-09T05:38:45;16.70;99.90
1778;DHT22;886;50.082;8.222;2022-09-09T05:41:15;16.80;99.90
1778;DHT22;886;50.082;8.222;2022-09-09T05:43:43;16.80;99.90
1778;DHT22;886;50.082;8.222;2022-09-09T05:46:12;16.80;99.90
1778;DHT22;886;50.082;8.222;2022-09-09T05:48:42;16.80;99.90
1778;DHT22;886;50.082;8.222;2022-09-09T05:51:19;16.70;99.90
1778;DHT22;886;50.082;8.222;2022-09-09T05:53:51;16.80;99.90
1778;DHT22;886;50.082;8.222;2022-09-09T05:56:20;16.70;99.90
1778;DHT22;886;50.082;8.222;2022-09-09T05:58:54;16.80;99.90
1778;DHT22;886;50.082;8.222;2022-09-09T06:01:24;16.80;99.90
1778;DHT22;886;50.082;8.222;2022-09-09T06:03:55;16.90;99.90
1778;DHT22;886;50.082;8.222;2022-09-09T06:06:27;16.90;99.90
1778;DHT22;886;50.082;8.222;2022-09-09T06:08:57;16.90;99.90
1778;DHT22;886;50.082;8.222;2022-09-09T06:11:26;17.00;99.90
1778;DHT22;886;50.082;8.222;2022-09-09T06:13:57;17.00;99.90
1778;DHT22;886;50.082;8.222;2022-09-09T06:16:26;17.10;99.90
1778;DHT22;886;50.082;8.222;2022-09-09T06:18:55;17.10;99.90
1778;DHT22;886;50.082;8.222;2022-09-09T06:21:29;17.20;99.90
1778;DHT22;886;50.082;8.222;2022-09-09T06:24:00;17.20;99.90
1778;DHT22;886;50.082;8.222;2022-09-09T06:26:29;17.10;99.90
1778;DHT22;886;50.082;8.222;2022-09-09T06:29:04;17.20;99.90
1778;DHT22;886;50.082;8.222;2022-09-09T06:31:33;17.20;99.90
1778;DHT22;886;50.082;8.222;2022-09-09T06:34:03;17.20;99.90
1778;DHT22;886;50.082;8.222;2022-09-09T06:36:34;17.30;99.90
1778;DHT22;886;50.082;8.222;2022-09-09T06:39:05;17.30;99.90
1778;DHT22;886;50.082;8.222;2022-09-09T06:41:39;17.40;99.90
1778;DHT22;886;50.082;8.222;2022-09-09T06:44:09;17.40;99.90
1778;DHT22;886;50.082;8.222;2022-09-09T06:46:44;17.30;99.90
1778;DHT22;886;50.082;8.222;2022-09-09T06:49:14;17.30;99.90
1778;DHT22;886;50.082;8.222;2022-09-09T06:51:42;17.30;99.90
1778;DHT22;886;50.082;8.222;2022-09-09T06:54:11;17.30;99.90
1778;DHT22;886;50.082;8.222;2022-09-09T06:56:39;17.30;99.90
1778;DHT22;886;50.082;8.222;2022-09-09T06:59:12;17.30;99.90
1778;DHT22;886;50.082;8.222;2022-09-09T07:01:40;17.20;99.90
1778;DHT22;886;50.082;8.222;2022-09-09T07:04:09;17.20;99.90
1778;DHT22;886;50.082;8.222;2022-09-09T07:06:39;17.30;99.90
1778;DHT22;886;50.082;8.222;2022-09-09T07:09:10;17.30;99.90
1778;DHT22;886;50.082;8.222;2022-09-09T07:11:39;17.30;99.90
1778;DHT22;886;50.082;8.222;2022-09-09T07:14:09;17.40;99.90
1778;DHT22;886;50.082;8.222;2022-09-09T07:16:40;17.40;99.90
1778;DHT22;886;50.082;8.222;2022-09-09T07:19:08;17.40;99.90
1778;DHT22;886;50.082;8.222;2022-09-09T07:21:38;17.40;99.90
1778;DHT22;886;50.082;8.222;2022-09-09T07:24:08;17.40;99.90
1778;DHT22;886;50.082;8.222;2022-09-09T07:26:38;17.50;99.90
1778;DHT22;886;50.082;8.222;2022-09-09T07:29:05;17.50;99.90
1778;DHT22;886;50.082;8.222;2022-09-09T07:31:35;17.60;99.90
1778;DHT22;886;50.082;8.222;2022-09-09T07:34:04;17.60;99.90
1778;DHT22;886;50.082;8.222;2022-09-09T07:36:32;17.80;99.90
1778;DHT22;886;50.082;8.222;2022-09-09T07:39:02;17.90;99.90
1778;DHT22;886;50.082;8.222;2022-09-09T07:41:35;18.00;99.90
1778;DHT22;886;50.082;8.222;2022-09-09T07:44:12;18.10;99.90
1778;DHT22;886;50.082;8.222;2022-09-09T07:46:40;18.00;99.90
1778;DHT22;886;50.082;8.222;2022-09-09T07:49:11;18.10;99.90
1778;DHT22;886;50.082;8.222;2022-09-09T07:51:40;18.00;99.90
1778;DHT22;886;50.082;8.222;2022-09-09T07:54:11;18.00;99.90
1778;DHT22;886;50.082;8.222;2022-09-09T07:56:41;18.10;99.90
1778;DHT22;886;50.082;8.222;2022-09-09T07:59:09;18.10;99.90
1778;DHT22;886;50.082;8.222;2022-09-09T08:01:39;18.10;99.90
1778;DHT22;886;50.082;8.222;2022-09-09T08:04:08;18.20;99.90
1778;DHT22;886;50.082;8.222;2022-09-09T08:06:38;18.30;99.90
1778;DHT22;886;50.082;8.222;2022-09-09T08:09:09;18.30;99.90
1778;DHT22;886;50.082;8.222;2022-09-09T08:11:37;18.40;99.90
1778;DHT22;886;50.082;8.222;2022-09-09T08:14:07;18.50;99.90
1778;DHT22;886;50.082;8.222;2022-09-09T08:16:37;18.50;99.90
1778;DHT22;886;50.082;8.222;2022-09-09T08:19:05;18.50;99.90
1778;DHT22;886;50.082;8.222;2022-09-09T08:21:35;18.50;99.90
1778;DHT22;886;50.082;8.222;2022-09-09T08:24:04;18.60;99.90
1778;DHT22;886;50.082;8.222;2022-09-09T08:26:33;18.60;99.90
1778;DHT22;886;50.082;8.222;2022-09-09T08:29:03;18.60;99.90
1778;DHT22;886;50.082;8.222;2022-09-09T08:31:33;18.60;99.90
1778;DHT22;886;50.082;8.222;2022-09-09T08:34:02;18.50;99.90
1778;DHT22;886;50.082;8.222;2022-09-09T08:36:31;18.50;99.90
1778;DHT22;886;50.082;8.222;2022-09-09T08:39:00;18.50;99.90
1778;DHT22;886;50.082;8.222;2022-09-09T08:41:54;18.60;99.90
1778;DHT22;886;50.082;8.222;2022-09-09T08:44:39;18.70;99.90
1778;DHT22;886;50.082;8.222;2022-09-09T08:47:21;18.70;99.90
1778;DHT22;886;50.082;8.222;2022-09-09T08:50:11;18.90;99.90
1778;DHT22;886;50.082;8.222;2022-09-09T08:52:51;18.90;99.90
1778;DHT22;886;50.082;8.222;2022-09-09T08:55:26;18.80;99.90
1778;DHT22;886;50.082;8.222;2022-09-09T08:58:05;18.90;99.90
1778;DHT22;886;50.082;8.222;2022-09-09T09:00:52;18.90;99.90
1778;DHT22;886;50.082;8.222;2022-09-09T09:03:33;18.90;99.90
1778;DHT22;886;50.082;8.222;2022-09-09T09:06:09;18.80;99.90
1778;DHT22;886;50.082;8.222;2022-09-09T09:08:58;18.90;99.90
1778;DHT22;886;50.082;8.222;2022-09-09T09:11:35;19.00;99.90
1778;DHT22;886;50.082;8.222;2022-09-09T09:14:07;19.00;99.90
1778;DHT22;886;50.082;8.222;2022-09-09T09:16:40;19.10;99.90
1778;DHT22;886;50.082;8.222;2022-09-09T09:19:14;19.20;99.90
1778;DHT22;886;50.082;8.222;2022-09-09T09:21:42;19.30;99.90
1778;DHT22;886;50.082;8.222;2022-09-09T09:24:16;19.30;99.90
1778;DHT22;886;50.082;8.222;2022-09-09T09:26:47;19.30;99.90
1778;DHT22;886;50.082;8.222;2022-09-09T09:29:16;19.40;99.90
1778;DHT22;886;50.082;8.222;2022-09-09T09:31:50;19.30;99.90
1778;DHT22;886;50.082;8.222;2022-09-09T09:34:19;19.30;99.90
1778;DHT22;886;50.082;8.222;2022-09-09T09:36:53;19.30;99.90
1778;DHT22;886;50.082;8.222;2022-09-09T09:39:25;19.40;99.90
1778;DHT22;886;50.082;8.222;2022-09-09T09:42:16;19.50;99.90
1778;DHT22;886;50.082;8.222;2022-09-09T09:44:48;19.60;99.90
1778;DHT22;886;50.082;8.222;2022-09-09T09:47:18;19.60;99.90
1778;DHT22;886;50.082;8.222;2022-09-09T09:49:57;19.60;99.90
1778;DHT22;886;50.082;8.222;2022-09-09T09:52:33;19.60;99.90
1778;DHT22;886;50.082;8.222;2022-09-09T09:55:04;19.50;99.90
1778;DHT22;886;50.082;8.222;2022-09-09T09:57:44;19.50;99.90
1778;DHT22;886;50.082;8.222;2022-09-09T10:00:14;19.60;99.90
1778;DHT22;886;50.082;8.222;2022-09-09T10:02:46;19.80;99.90
1778;DHT22;886;50.082;8.222;2022-09-09T10:05:16;20.00;99.90
1778;DHT22;886;50.082;8.222;2022-09-09T10:08:10;20.10;99.90
1778;DHT22;886;50.082;8.222;2022-09-09T10:10:48;20.30;99.20
1778;DHT22;886;50.082;8.222;2022-09-09T10:13:30;20.50;98.90
1778;DHT22;886;50.082;8.222;2022-09-09T10:16:24;20.60;98.90
1778;DHT22;886;50.082;8.222;2022-09-09T10:19:02;20.60;98.40
1778;DHT22;886;50.082;8.222;2022-09-09T10:27:41;20.80;98.20
1778;DHT22;886;50.082;8.222;2022-09-09T10:30:23;20.90;97.60
1778;DHT22;886;50.082;8.222;2022-09-09T10:33:04;20.90;97.60
1778;DHT22;886;50.082;8.222;2022-09-09T10:35:52;20.90;97.10
1778;DHT22;886;50.082;8.222;2022-09-09T10:38:25;20.90;97.10
1778;DHT22;886;50.082;8.222;2022-09-09T10:41:22;20.90;97.00
1778;DHT22;886;50.082;8.222;2022-09-09T10:47:29;20.90;94.80
1778;DHT22;886;50.082;8.222;2022-09-09T10:50:23;21.00;94.40
1778;DHT22;886;50.082;8.222;2022-09-09T10:53:45;21.00;93.90
1778;DHT22;886;50.082;8.222;2022-09-09T10:56:21;21.00;94.20
1778;DHT22;886;50.082;8.222;2022-09-09T10:58:56;21.00;94.10
1778;DHT22;886;50.082;8.222;2022-09-09T11:01:32;21.10;94.10
1778;DHT22;886;50.082;8.222;2022-09-09T11:04:11;21.20;92.80
1778;DHT22;886;50.082;8.222;2022-09-09T11:06:46;21.20;92.80
1778;DHT22;886;50.082;8.222;2022-09-09T11:09:17;21.30;92.10
1778;DHT22;886;50.082;8.222;2022-09-09T11:11:53;21.30;92.10
1778;DHT22;886;50.082;8.222;2022-09-09T11:14:38;21.40;92.10
1778;DHT22;886;50.082;8.222;2022-09-09T11:17:13;21.40;91.80
1778;DHT22;886;50.082;8.222;2022-09-09T11:19:44;21.50;92.10
1778;DHT22;886;50.082;8.222;2022-09-09T11:22:21;21.40;91.50
1778;DHT22;886;50.082;8.222;2022-09-09T11:24:59;21.40;92.00
1778;DHT22;886;50.082;8.222;2022-09-09T11:27:32;21.40;91.70
1778;DHT22;886;50.082;8.222;2022-09-09T11:30:21;21.40;91.80
1778;DHT22;886;50.082;8.222;2022-09-09T11:36:56;21.40;91.60
1778;DHT22;886;50.082;8.222;2022-09-09T11:39:48;21.40;91.90
1778;DHT22;886;50.082;8.222;2022-09-09T11:42:32;21.30;92.20
1778;DHT22;886;50.082;8.222;2022-09-09T11:45:18;21.30;92.20
1778;DHT22;886;50.082;8.222;2022-09-09T11:47:59;21.30;91.60
1778;DHT22;886;50.082;8.222;2022-09-09T11:50:35;21.20;91.90
1778;DHT22;886;50.082;8.222;2022-09-09T11:53:21;21.10;91.40
1778;DHT22;886;50.082;8.222;2022-09-09T11:56:09;21.00;91.80
1778;DHT22;886;50.082;8.222;2022-09-09T11:58:43;21.00;91.80
1778;DHT22;886;50.082;8.222;2022-09-09T12:01:34;21.00;92.00
1778;DHT22;886;50.082;8.222;2022-09-09T12:04:21;21.00;92.30
1778;DHT22;886;50.082;8.222;2022-09-09T12:07:01;21.00;92.10
1778;DHT22;886;50.082;8.222;2022-09-09T12:09:51;21.00;92.00
1778;DHT22;886;50.082;8.222;2022-09-09T12:12:31;20.90;92.00
1778;DHT22;886;50.082;8.222;2022-09-09T12:15:15;20.90;92.30
1778;DHT22;886;50.082;8.222;2022-09-09T12:18:05;20.80;92.50
1778;DHT22;886;50.082;8.222;2022-09-09T12:20:52;20.70;92.70
1778;DHT22;886;50.082;8.222;2022-09-09T12:23:40;20.70;92.90
1778;DHT22;886;50.082;8.222;2022-09-09T12:26:23;20.70;93.20
1778;DHT22;886;50.082;8.222;2022-09-09T12:29:15;20.70;93.40
1778;DHT22;886;50.082;8.222;2022-09-09T12:31:56;20.70;93.50
1778;DHT22;886;50.082;8.222;2022-09-09T12:34:46;20.70;93.60
1778;DHT22;886;50.082;8.222;2022-09-09T12:37:21;20.80;93.80
1778;DHT22;886;50.082;8.222;2022-09-09T12:39:55;20.80;93.60
1778;DHT22;886;50.082;8.222;2022-09-09T12:42:27;20.90;93.80
1778;DHT22;886;50.082;8.222;2022-09-09T12:44:57;21.10;93.80
1778;DHT22;886;50.082;8.222;2022-09-09T12:47:37;21.10;92.60
1778;DHT22;886;50.082;8.222;2022-09-09T12:50:18;21.20;92.90
1778;DHT22;886;50.082;8.222;2022-09-09T12:52:51;21.20;93.00
1778;DHT22;886;50.082;8.222;2022-09-09T12:55:24;21.20;93.10
1778;DHT22;886;50.082;8.222;2022-09-09T12:57:52;21.20;92.90
1778;DHT22;886;50.082;8.222;2022-09-09T13:00:22;21.30;92.90
1778;DHT22;886;50.082;8.222;2022-09-09T13:02:52;21.20;93.00
1778;DHT22;886;50.082;8.222;2022-09-09T13:05:25;21.20;93.20
1778;DHT22;886;50.082;8.222;2022-09-09T13:08:01;21.20;93.20
1778;DHT22;886;50.082;8.222;2022-09-09T13:10:41;21.20;93.60
1778;DHT22;886;50.082;8.222;2022-09-09T13:13:26;21.30;93.60
1778;DHT22;886;50.082;8.222;2022-09-09T13:15:56;21.30;93.10
1778;DHT22;886;50.082;8.222;2022-09-09T13:18:27;21.40;92.50
1778;DHT22;886;50.082;8.222;2022-09-09T13:20:59;21.40;92.50
1778;DHT22;886;50.082;8.222;2022-09-09T13:23:38;21.40;92.60
1778;DHT22;886;50.082;8.222;2022-09-09T13:26:18;21.40;92.30
1778;DHT22;886;50.082;8.222;2022-09-09T13:28:52;21.40;92.30
1778;DHT22;886;50.082;8.222;2022-09-09T13:31:28;21.40;92.20
1778;DHT22;886;50.082;8.222;2022-09-09T13:33:56;21.30;92.20
1778;DHT22;886;50.082;8.222;2022-09-09T13:36:29;21.30;92.50
1778;DHT22;886;50.082;8.222;2022-09-09T13:38:58;21.30;92.60
1778;DHT22;886;50.082;8.222;2022-09-09T13:41:29;21.20;92.70
1778;DHT22;886;50.082;8.222;2022-09-09T13:44:00;21.10;93.00
1778;DHT22;886;50.082;8.222;2022-09-09T13:46:32;21.10;93.20
1778;DHT22;886;50.082;8.222;2022-09-09T13:49:17;21.00;93.40
1778;DHT22;886;50.082;8.222;2022-09-09T13:51:50;20.90;93.40
1778;DHT22;886;50.082;8.222;2022-09-09T13:54:20;20.90;93.50
1778;DHT22;886;50.082;8.222;2022-09-09T13:56:57;20.80;93.60
1778;DHT22;886;50.082;8.222;2022-09-09T13:59:24;20.80;93.80
1778;DHT22;886;50.082;8.222;2022-09-09T14:02:21;20.80;93.90
1778;DHT22;886;50.082;8.222;2022-09-09T14:04:52;20.80;93.90
1778;DHT22;886;50.082;8.222;2022-09-09T14:07:21;20.80;93.90
1778;DHT22;886;50.082;8.222;2022-09-09T14:09:49;20.80;94.00
1778;DHT22;886;50.082;8.222;2022-09-09T14:12:17;20.80;94.20
1778;DHT22;886;50.082;8.222;2022-09-09T14:14:44;20.70;94.90
1778;DHT22;886;50.082;8.222;2022-09-09T14:17:11;20.60;96.10
1778;DHT22;886;50.082;8.222;2022-09-09T14:19:46;20.50;96.90
1778;DHT22;886;50.082;8.222;2022-09-09T14:22:13;20.40;98.20
1778;DHT22;886;50.082;8.222;2022-09-09T14:24:48;20.40;98.70
1778;DHT22;886;50.082;8.222;2022-09-09T14:27:18;20.40;99.20
1778;DHT22;886;50.082;8.222;2022-09-09T14:29:46;20.30;99.90
1778;DHT22;886;50.082;8.222;2022-09-09T14:32:13;20.30;99.90
1778;DHT22;886;50.082;8.222;2022-09-09T14:34:40;20.40;99.90
1778;DHT22;886;50.082;8.222;2022-09-09T14:37:08;20.30;99.90
1778;DHT22;886;50.082;8.222;2022-09-09T14:39:35;20.40;99.90
1778;DHT22;886;50.082;8.222;2022-09-09T14:42:11;20.40;99.90
1778;DHT22;886;50.082;8.222;2022-09-09T14:44:38;20.60;99.90
1778;DHT22;886;50.082;8.222;2022-09-09T14:47:08;20.60;99.90
1778;DHT22;886;50.082;8.222;2022-09-09T14:49:38;20.60;99.90
1778;DHT22;886;50.082;8.222;2022-09-09T14:52:21;20.60;99.90
1778;DHT22;886;50.082;8.222;2022-09-09T14:54:54;20.60;99.90
1778;DHT22;886;50.082;8.222;2022-09-09T14:57:21;20.60;99.80
1778;DHT22;886;50.082;8.222;2022-09-09T14:59:47;20.70;99.10
1778;DHT22;886;50.082;8.222;2022-09-09T15:02:20;20.70;98.70
1778;DHT22;886;50.082;8.222;2022-09-09T15:04:50;20.70;98.70
1778;DHT22;886;50.082;8.222;2022-09-09T15:07:32;20.60;98.50
1778;DHT22;886;50.082;8.222;2022-09-09T15:10:06;20.60;98.20
1778;DHT22;886;50.082;8.222;2022-09-09T15:12:33;20.50;98.10
1778;DHT22;886;50.082;8.222;2022-09-09T15:15:03;20.50;98.70
1778;DHT22;886;50.082;8.222;2022-09-09T15:17:39;20.50;98.80
1778;DHT22;886;50.082;8.222;2022-09-09T15:20:08;20.50;99.00
1778;DHT22;886;50.082;8.222;2022-09-09T15:22:41;20.50;99.00
1778;DHT22;886;50.082;8.222;2022-09-09T15:25:08;20.50;99.40
1778;DHT22;886;50.082;8.222;2022-09-09T15:27:35;20.50;99.30
1778;DHT22;886;50.082;8.222;2022-09-09T15:30:06;20.50;99.00
1778;DHT22;886;50.082;8.222;2022-09-09T15:32:34;20.40;99.00
1778;DHT22;886;50.082;8.222;2022-09-09T15:35:01;20.40;98.90
1778;DHT22;886;50.082;8.222;2022-09-09T15:37:28;20.30;99.20
1778;DHT22;886;50.082;8.222;2022-09-09T15:39:59;20.30;99.30
1778;DHT22;886;50.082;8.222;2022-09-09T15:42:27;20.20;99.50
1778;DHT22;886;50.082;8.222;2022-09-09T15:45:00;20.20;99.60
1778;DHT22;886;50.082;8.222;2022-09-09T15:47:27;20.20;99.20
1778;DHT22;886;50.082;8.222;2022-09-09T15:49:57;20.20;98.80
1778;DHT22;886;50.082;8.222;2022-09-09T15:52:27;20.20;99.10
1778;DHT22;886;50.082;8.222;2022-09-09T15:55:01;20.20;98.60
1778;DHT22;886;50.082;8.222;2022-09-09T15:57:31;20.20;98.90
1778;DHT22;886;50.082;8.222;2022-09-09T16:00:00;20.20;98.90
1778;DHT22;886;50.082;8.222;2022-09-09T16:02:30;20.20;99.00
1778;DHT22;886;50.082;8.222;2022-09-09T16:04:57;20.20;98.90
1778;DHT22;886;50.082;8.222;2022-09-09T16:07:24;20.10;98.80
1778;DHT22;886;50.082;8.222;2022-09-09T16:09:51;20.20;99.10
1778;DHT22;886;50.082;8.222;2022-09-09T16:12:26;20.10;99.00
1778;DHT22;886;50.082;8.222;2022-09-09T16:14:52;20.00;99.10
1778;DHT22;886;50.082;8.222;2022-09-09T16:17:22;20.10;99.30
1778;DHT22;886;50.082;8.222;2022-09-09T16:19:49;20.10;99.40
1778;DHT22;886;50.082;8.222;2022-09-09T16:22:24;20.10;99.30
1778;DHT22;886;50.082;8.222;2022-09-09T16:24:51;20.00;99.50
1778;DHT22;886;50.082;8.222;2022-09-09T16:27:32;20.00;99.00
1778;DHT22;886;50.082;8.222;2022-09-09T16:29:59;20.10;98.70
1778;DHT22;886;50.082;8.222;2022-09-09T16:32:26;20.10;98.50
1778;DHT22;886;50.082;8.222;2022-09-09T16:34:53;20.10;98.40
1778;DHT22;886;50.082;8.222;2022-09-09T16:37:20;20.10;98.40
1778;DHT22;886;50.082;8.222;2022-09-09T16:39:47;20.10;98.50
1778;DHT22;886;50.082;8.222;2022-09-09T16:42:14;20.10;98.30
1778;DHT22;886;50.082;8.222;2022-09-09T16:44:47;20.10;98.20
1778;DHT22;886;50.082;8.222;2022-09-09T16:47:16;20.10;98.10
1778;DHT22;886;50.082;8.222;2022-09-09T16:49:44;20.00;98.40
1778;DHT22;886;50.082;8.222;2022-09-09T16:52:12;20.00;98.40
1778;DHT22;886;50.082;8.222;2022-09-09T16:54:48;20.00;98.60
1778;DHT22;886;50.082;8.222;2022-09-09T16:57:19;20.00;98.60
1778;DHT22;886;50.082;8.222;2022-09-09T16:59:47;20.00;99.00
1778;DHT22;886;50.082;8.222;2022-09-09T17:02:17;20.00;99.50
1778;DHT22;886;50.082;8.222;2022-09-09T17:04:44;19.90;99.90
1778;DHT22;886;50.082;8.222;2022-09-09T17:07:11;19.80;99.90
1778;DHT22;886;50.082;8.222;2022-09-09T17:09:38;19.80;99.90